This is the latest recevied weather packets stored in our database for station/object KK4WXG. If no packets are shown the sender has not sent any weather packets the latest 1 day(s).
| Time | Temp. | Humidity | Pressure | Rain* | Wind** | Luminosity | Snow |
|---|---|---|---|---|---|---|---|
| 1778111131 | 18.89° C | 80% | 1008.9 hPa | 0 mm | - | 3 W/m² | - |
| 1778107492 | 20.56° C | 80% | 1008.1 hPa | 0 mm | - | 8 W/m² | - |
| 1778105672 | 21.11° C | 77% | 1008 hPa | 0 mm | - | 186 W/m² | - |
| 1778105370 | 21.11° C | 76% | 1008.1 hPa | 0 mm | - | 232 W/m² | - |
| 1778105065 | 21.67° C | 76% | 1007.6 hPa | 0 mm | - | 302 W/m² | - |
| 1778104154 | 20.56° C | 79% | 1007.8 hPa | 0 mm | - | 241 W/m² | - |
| 1778103851 | 20.56° C | 78% | 1007.6 hPa | 0 mm | - | 138 W/m² | - |
| 1778103246 | 20° C | 79% | 1007.9 hPa | 0 mm | - | 106 W/m² | - |
| 1778099303 | 19.44° C | 81% | 1007.4 hPa | 0 mm | - | 64 W/m² | - |
| 1778098394 | 20° C | 79% | 1007.5 hPa | 0 mm | - | 48 W/m² | - |
| 1778098091 | 20° C | 79% | 1007.2 hPa | 0 mm | - | 82 W/m² | - |
| 1778095058 | 20.56° C | 75% | 1007.4 hPa | 0 mm | - | 115 W/m² | - |
| 1778094452 | 21.11° C | 76% | 1007.4 hPa | 0 mm | - | 343 W/m² | - |
| 1778094148 | 21.11° C | 76% | 1007.4 hPa | 0 mm | - | 306 W/m² | - |
| 1778092329 | 20° C | 79% | 1007.9 hPa | 0 mm | - | 379 W/m² | - |
| 1778090815 | 19.44° C | 80% | 1007.8 hPa | 0 mm | - | 264 W/m² | - |
| 1778090511 | 18.89° C | 81% | 1007.9 hPa | 0 mm | - | 273 W/m² | - |
| 1778088688 | 18.89° C | 81% | 1008.1 hPa | 0 mm | - | 323 W/m² | - |
| 1778087477 | 18.89° C | 82% | 1008.1 hPa | 0 mm | - | 272 W/m² | - |
| 1778085963 | 18.33° C | 83% | 1008.1 hPa | 0 mm | - | 402 W/m² | - |
| 1778085660 | 18.89° C | 82% | 1008 hPa | 0 mm | - | 410 W/m² | - |
| 1778083234 | 17.78° C | 87% | 1008 hPa | 0 mm | - | 299 W/m² | - |
| 1778081218 | 16.67° C | 90% | 1008.2 hPa | 0 mm | - | 314 W/m² | - |
| 1778080007 | 16.11° C | 93% | 1008.2 hPa | 0 mm | - | 380 W/m² | - |
| 1778079401 | 16.11° C | 94% | 1008.7 hPa | 0 mm | - | 205 W/m² | - |
* Rain latest hour (hover to see other rain measurements)
** Current wind speed in m/s (hover to see current wind gust speed)